• Join FlightAware (Why Join?)
  • Login
  • US Flag 
03:04AM EST


 

Airport Tracker/Info


-or-


 

Live Flight TrackerFlight Track Log ✈ CSN6995 ✈ 09-Apr-2014 ✈ ZWWW / URC - ZSSS / SHA

Flight Track Log - Related Links

Times and Time Zones

All times are in EDT time to prevent confusion due to time zone crossing. See the CSN6995 flight status page for this flight to view local times or setup timezone preferences in your user account.

Time Position Orientation Groundspeed Altitude Reporting Facility
EDT Latitude Longitude Course Direction KTS MPH feet Rate Location/Type
08:32PM 43.8792 87.6284 104° East  Level Estimated
08:33PM 43.8510 87.7824 104° East  Level Estimated
08:34PM 43.8227 87.9362 104° East  Level Estimated
08:35PM 43.7941 88.0899 104° East  Level Estimated
08:36PM 43.7654 88.2435 104° East  Level Estimated
08:37PM 43.7364 88.3969 105° East  Level Estimated
08:38PM 43.7072 88.5501 105° East  Level Estimated
08:39PM 43.6779 88.7032 105° East  Level Estimated
08:40PM 43.6483 88.8562 105° East  Level Estimated
08:41PM 43.6185 89.0090 105° East  Level Estimated
08:42PM 43.5885 89.1617 105° East  Level Estimated
08:43PM 43.5583 89.3142 105° East  Level Estimated
08:44PM 43.5279 89.4665 105° East  Level Estimated
08:45PM 43.4973 89.6187 105° East  Level Estimated
08:46PM 43.4665 89.7708 106° East  Level Estimated
08:47PM 43.4356 89.9226 106° East  Level Estimated
08:48PM 43.4044 90.0744 106° East  Level Estimated
08:49PM 43.3730 90.2259 106° East  Level Estimated
08:50PM 43.3414 90.3774 106° East  Level Estimated
08:51PM 43.3096 90.5286 106° East  Level Estimated
08:52PM 43.2776 90.6797 106° East  Level Estimated
08:53PM 43.2454 90.8307 106° East  Level Estimated
08:54PM 43.2130 90.9814 106° East  Level Estimated
08:55PM 43.1804 91.1320 106° East  Level Estimated
08:56PM 43.1476 91.2825 107° East  Level Estimated
08:57PM 43.1146 91.4328 107° East  Level Estimated
08:58PM 43.0815 91.5829 107° East  Level Estimated
08:59PM 43.0481 91.7329 107° East  Level Estimated
09:00PM 43.0145 91.8827 107° East  Level Estimated
09:01PM 42.9807 92.0323 107° East  Level Estimated
09:02PM 42.9468 92.1818 107° East  Level Estimated
09:03PM 42.9126 92.3311 107° East  Level Estimated
09:04PM 42.8783 92.4803 107° East  Level Estimated
09:05PM 42.8437 92.6293 108° East  Level Estimated
09:06PM 42.8090 92.7781 108° East  Level Estimated
09:07PM 42.7741 92.9267 108° East  Level Estimated
09:08PM 42.7389 93.0752 108° East  Level Estimated
09:09PM 42.7036 93.2235 108° East  Level Estimated
09:10PM 42.6681 93.3717 108° East  Level Estimated
09:11PM 42.6324 93.5196 108° East  Level Estimated
09:12PM 42.5965 93.6674 108° East  Level Estimated
09:13PM 42.5605 93.8150 108° East  Level Estimated
09:14PM 42.5242 93.9625 108° East  Level Estimated
09:15PM 42.4877 94.1098 109° East  Level Estimated
09:16PM 42.4511 94.2569 109° East  Level Estimated
09:17PM 42.4143 94.4038 109° East  Level Estimated
09:18PM 42.3773 94.5506 109° East  Level Estimated
09:19PM 42.3401 94.6972 109° East  Level Estimated
09:20PM 42.3027 94.8436 109° East  Level Estimated
09:21PM 42.2651 94.9899 109° East  Level Estimated
09:22PM 42.2273 95.1360 109° East  Level Estimated
09:23PM 42.1894 95.2819 109° East  Level Estimated
09:24PM 42.1512 95.4276 109° East  Level Estimated
09:25PM 42.1129 95.5731 109° East  Level Estimated
09:26PM 42.0744 95.7185 110° East  Level Estimated
09:27PM 42.0358 95.8637 110° East  Level Estimated
09:28PM 41.9969 96.0087 110° East  Level Estimated
09:29PM 41.9578 96.1535 110° East  Level Estimated
09:30PM 41.9186 96.2982 110° East  Level Estimated
09:31PM 41.8792 96.4427 110° East  Level Estimated
09:32PM 41.8396 96.5870 110° East  Level Estimated
09:33PM 41.7998 96.7311 110° East  Level Estimated
09:34PM 41.7599 96.8751 110° East  Level Estimated
09:35PM 41.7198 97.0188 110° East  Level Estimated
09:36PM 41.6795 97.1624 111° Southeast  Level Estimated
09:37PM 41.6390 97.3058 111° Southeast  Level Estimated
09:38PM 41.5983 97.4491 111° Southeast  Level Estimated
09:39PM 41.5574 97.5921 111° Southeast  Level Estimated
09:40PM 41.5164 97.7350 111° Southeast  Level Estimated
09:41PM 41.4752 97.8776 111° Southeast  Level Estimated
09:42PM 41.4339 98.0202 111° Southeast  Level Estimated
09:43PM 41.3923 98.1625 111° Southeast  Level Estimated
09:44PM 41.3506 98.3046 111° Southeast  Level Estimated
09:45PM 41.3087 98.4466 111° Southeast  Level Estimated
09:46PM 41.2666 98.5883 112° Southeast  Level Estimated
09:47PM 41.2244 98.7299 112° Southeast  Level Estimated
09:48PM 41.1819 98.8713 112° Southeast  Level Estimated
09:49PM 41.1394 99.0126 112° Southeast  Level Estimated
09:50PM 41.0966 99.1536 112° Southeast  Level Estimated
09:51PM 41.0536 99.2945 112° Southeast  Level Estimated
09:52PM 41.0105 99.4351 112° Southeast  Level Estimated
09:53PM 40.9673 99.5756 112° Southeast  Level Estimated
09:54PM 40.9238 99.7159 112° Southeast  Level Estimated
09:55PM 40.8802 99.8560 112° Southeast  Level Estimated
09:56PM 40.8364 99.9960 112° Southeast  Level Estimated
09:57PM 40.7924 100.1357 113° Southeast  Level Estimated
09:58PM 40.7483 100.2753 113° Southeast  Level Estimated
09:59PM 40.7040 100.4146 113° Southeast  Level Estimated
10:00PM 40.6596 100.5538 113° Southeast  Level Estimated
10:01PM 40.6149 100.6928 113° Southeast  Level Estimated
10:02PM 40.5701 100.8317 113° Southeast  Level Estimated
10:03PM 40.5252 100.9703 113° Southeast  Level Estimated
10:04PM 40.4801 101.1087 113° Southeast  Level Estimated
10:05PM 40.4348 101.2470 113° Southeast  Level Estimated
10:06PM 40.3893 101.3851 113° Southeast  Level Estimated
10:07PM 40.3437 101.5230 113° Southeast  Level Estimated
10:08PM 40.2979 101.6607 114° Southeast  Level Estimated
10:09PM 40.2520 101.7982 114° Southeast  Level Estimated
10:10PM 40.2058 101.9355 114° Southeast  Level Estimated
10:11PM 40.1596 102.0727 114° Southeast  Level Estimated
10:12PM 40.1132 102.2096 114° Southeast  Level Estimated
10:13PM 40.0666 102.3464 114° Southeast  Level Estimated
10:14PM 40.0198 102.4830 114° Southeast  Level Estimated
10:15PM 39.9729 102.6193 114° Southeast  Level Estimated
10:16PM 39.9258 102.7556 114° Southeast  Level Estimated
10:17PM 39.8786 102.8916 114° Southeast  Level Estimated
10:18PM 39.8312 103.0274 114° Southeast  Level Estimated
10:19PM 39.7836 103.1630 114° Southeast  Level Estimated
10:20PM 39.7359 103.2985 115° Southeast  Level Estimated
10:21PM 39.6881 103.4338 115° Southeast  Level Estimated
10:22PM 39.6400 103.5688 115° Southeast  Level Estimated
10:23PM 39.5919 103.7037 115° Southeast  Level Estimated
10:24PM 39.5435 103.8384 115° Southeast  Level Estimated
10:25PM 39.4950 103.9730 115° Southeast  Level Estimated
10:26PM 39.4464 104.1073 115° Southeast  Level Estimated
10:27PM 39.3976 104.2414 115° Southeast  Level Estimated
10:28PM 39.3487 104.3754 115° Southeast  Level Estimated
10:29PM 39.2996 104.5091 115° Southeast  Level Estimated
10:30PM 39.2503 104.6427 115° Southeast  Level Estimated
10:31PM 39.2009 104.7761 116° Southeast  Level Estimated
10:32PM 39.1513 104.9093 116° Southeast  Level Estimated
10:33PM 39.1016 105.0423 116° Southeast  Level Estimated
10:34PM 39.0518 105.1751 116° Southeast  Level Estimated
10:35PM 39.0017 105.3078 116° Southeast  Level Estimated
10:36PM 38.9516 105.4402 116° Southeast  Level Estimated
10:37PM 38.9013 105.5725 116° Southeast  Level Estimated
10:38PM 38.8508 105.7046 116° Southeast  Level Estimated
10:39PM 38.8002 105.8364 116° Southeast  Level Estimated
10:40PM 38.7494 105.9681 116° Southeast  Level Estimated
10:41PM 38.6985 106.0997 116° Southeast  Level Estimated
10:42PM 38.6475 106.2310 116° Southeast  Level Estimated
10:43PM 38.5963 106.3621 117° Southeast  Level Estimated
10:44PM 38.5449 106.4931 117° Southeast  Level Estimated
10:45PM 38.4934 106.6238 117° Southeast  Level Estimated
10:46PM 38.4418 106.7544 117° Southeast  Level Estimated
10:47PM 38.3900 106.8848 117° Southeast  Level Estimated
10:48PM 38.3381 107.0150 117° Southeast  Level Estimated
10:49PM 38.2860 107.1450 117° Southeast  Level Estimated
10:50PM 38.2338 107.2748 117° Southeast  Level Estimated
10:51PM 38.1814 107.4045 117° Southeast  Level Estimated
10:52PM 38.1289 107.5339 117° Southeast  Level Estimated
10:53PM 38.0763 107.6632 117° Southeast  Level Estimated
10:54PM 38.0235 107.7923 117° Southeast  Level Estimated
10:55PM 37.9706 107.9212 117° Southeast  Level Estimated
10:56PM 37.9175 108.0499 118° Southeast  Level Estimated
10:57PM 37.8643 108.1784 118° Southeast  Level Estimated
10:58PM 37.8110 108.3068 118° Southeast  Level Estimated
10:59PM 37.7575 108.4349 118° Southeast  Level Estimated
11:00PM 37.7039 108.5629 118° Southeast  Level Estimated
11:01PM 37.6501 108.6907 118° Southeast  Level Estimated
11:02PM 37.5962 108.8183 118° Southeast  Level Estimated
11:03PM 37.5422 108.9457 118° Southeast  Level Estimated
11:04PM 37.4880 109.0729 118° Southeast  Level Estimated
11:05PM 37.4337 109.2000 118° Southeast  Level Estimated
11:06PM 37.3793 109.3268 118° Southeast  Level Estimated
11:07PM 37.3247 109.4535 118° Southeast  Level Estimated
11:08PM 37.2700 109.5800 118° Southeast  Level Estimated
11:09PM 37.2151 109.7063 119° Southeast  Level Estimated
11:10PM 37.1602 109.8324 119° Southeast  Level Estimated
11:11PM 37.1050 109.9584 119° Southeast  Level Estimated
11:12PM 37.0498 110.0841 119° Southeast  Level Estimated
11:13PM 36.9944 110.2097 119° Southeast  Level Estimated
11:14PM 36.9389 110.3351 119° Southeast  Level Estimated
11:15PM 36.8833 110.4603 119° Southeast  Level Estimated
11:16PM 36.8275 110.5853 119° Southeast  Level Estimated
11:17PM 36.7716 110.7102 119° Southeast  Level Estimated
11:18PM 36.7156 110.8348 119° Southeast  Level Estimated
11:19PM 36.6594 110.9593 119° Southeast  Level Estimated
11:20PM 36.6031 111.0836 119° Southeast  Level Estimated
11:21PM 36.5467 111.2077 119° Southeast  Level Estimated
11:22PM 36.4901 111.3316 120° Southeast  Level Estimated
11:23PM 36.4334 111.4554 120° Southeast  Level Estimated
11:24PM 36.3766 111.5790 120° Southeast  Level Estimated
11:25PM 36.3197 111.7023 120° Southeast  Level Estimated
11:26PM 36.2626 111.8256 120° Southeast  Level Estimated
11:27PM 36.2055 111.9486 120° Southeast  Level Estimated
11:28PM 36.1482 112.0714 120° Southeast  Level Estimated
11:29PM 36.0907 112.1941 120° Southeast  Level Estimated
11:30PM 36.0331 112.3166 120° Southeast  Level Estimated
11:31PM 35.9755 112.4389 120° Southeast  Level Estimated
11:32PM 35.9176 112.5611 120° Southeast  Level Estimated
11:33PM 35.8597 112.6830 120° Southeast  Level Estimated
11:34PM 35.8017 112.8048 120° Southeast  Level Estimated
11:35PM 35.7435 112.9264 120° Southeast  Level Estimated
11:36PM 35.6852 113.0478 121° Southeast  Level Estimated
11:37PM 35.6268 113.1691 121° Southeast  Level Estimated
11:38PM 35.5682 113.2901 121° Southeast  Level Estimated
11:39PM 35.5095 113.4110 121° Southeast  Level Estimated
11:40PM 35.4507 113.5317 121° Southeast  Level Estimated
11:41PM 35.3918 113.6523 121° Southeast  Level Estimated
11:42PM 35.3328 113.7726 121° Southeast  Level Estimated
11:43PM 35.2737 113.8928 121° Southeast  Level Estimated
11:44PM 35.2144 114.0128 121° Southeast  Level Estimated
11:45PM 35.1550 114.1327 121° Southeast  Level Estimated
11:46PM 35.0955 114.2523 121° Southeast  Level Estimated
11:47PM 35.0359 114.3718 121° Southeast  Level Estimated
11:48PM 34.9762 114.4911 121° Southeast  Level Estimated
11:49PM 34.9163 114.6103 121° Southeast  Level Estimated
11:50PM 34.8563 114.7292 122° Southeast  Level Estimated
11:51PM 34.7963 114.8480 122° Southeast  Level Estimated
11:52PM 34.7361 114.9666 122° Southeast  Level Estimated
11:53PM 34.6758 115.0851 122° Southeast  Level Estimated
11:54PM 34.6153 115.2033 122° Southeast  Level Estimated
11:55PM 34.5548 115.3214 122° Southeast  Level Estimated
11:56PM 34.4941 115.4393 122° Southeast  Level Estimated
11:57PM 34.4334 115.5571 122° Southeast  Level Estimated
11:58PM 34.3725 115.6747 122° Southeast  Level Estimated
11:59PM 34.3115 115.7921 122° Southeast  Level Estimated
12:00AM 34.2504 115.9093 122° Southeast  Level Estimated
12:01AM 34.1892 116.0264 122° Southeast  Level Estimated
12:02AM 34.1278 116.1433 122° Southeast  Level Estimated
12:03AM 34.0664 116.2600 122° Southeast  Level Estimated
12:04AM 34.0049 116.3766 122° Southeast  Level Estimated
12:05AM 33.9432 116.4930 123° Southeast  Level Estimated
12:06AM 33.8814 116.6092 123° Southeast  Level Estimated
12:07AM 33.8196 116.7253 123° Southeast  Level Estimated
12:08AM 33.7576 116.8412 123° Southeast  Level Estimated
12:09AM 33.6955 116.9569 123° Southeast  Level Estimated
12:10AM 33.6333 117.0724 123° Southeast  Level Estimated
12:11AM 33.5710 117.1878 123° Southeast  Level Estimated
12:12AM 33.5086 117.3030 123° Southeast  Level Estimated
12:13AM 33.4460 117.4181 123° Southeast  Level Estimated
12:14AM 33.3834 117.5330 123° Southeast  Level Estimated
12:15AM 33.3207 117.6477 123° Southeast  Level Estimated
12:16AM 33.2578 117.7623 123° Southeast  Level Estimated
12:17AM 33.1949 117.8767 123° Southeast  Level Estimated
12:18AM 33.1319 117.9909 123° Southeast  Level Estimated
12:19AM 33.0687 118.1050 123° Southeast  Level Estimated
12:20AM 33.0054 118.2189 123° Southeast  Level Estimated
12:21AM 32.9421 118.3326 124° Southeast  Level Estimated
12:22AM 32.8786 118.4462 124° Southeast  Level Estimated
12:23AM 32.8151 118.5596 124° Southeast  Level Estimated
12:24AM 32.7514 118.6728 124° Southeast  Level Estimated
12:25AM 32.6876 118.7859 124° Southeast  Level Estimated
12:26AM 32.6237 118.8988 124° Southeast  Level Estimated
12:27AM 32.5598 119.0116 124° Southeast  Level Estimated
12:28AM 32.4957 119.1242 124° Southeast  Level Estimated
12:29AM 32.4315 119.2367 124° Southeast  Level Estimated
12:30AM 32.3673 119.3489 124° Southeast  Level Estimated
12:31AM 32.3029 119.4611 124° Southeast  Level Estimated
12:32AM 32.2384 119.5730 124° Southeast  Level Estimated
12:33AM 32.1739 119.6848 124° Southeast  Level Estimated
12:34AM 32.1092 119.7965 124° Southeast  Level Estimated
12:35AM 32.0444 119.9080 124° Southeast  Level Estimated
12:36AM 31.9796 120.0193 124° Southeast  Level Estimated
12:37AM 31.9146 120.1305 125° Southeast  Level Estimated
12:38AM 31.8496 120.2415 125° Southeast  Level Estimated
12:39AM 31.7844 120.3523 125° Southeast  Level Estimated
12:40AM 31.7192 120.4631 125° Southeast  Level Estimated
12:41AM 31.6538 120.5736 125° Southeast  Level Estimated
12:42AM 31.5884 120.6840 125° Southeast  Level Estimated
12:43AM 31.5229 120.7942 125° Southeast  Level Estimated
12:44AM 31.4572 120.9043 125° Southeast  Level Estimated
12:45AM 31.3915 121.0142 125° Southeast  Level Estimated
12:46AM 31.3257 121.1240 125° Southeast  Level Estimated